createdAt,value
2023-05-14T00:03:34.892Z,100350.16
2023-05-14T00:08:38.889Z,100341.31
2023-05-14T00:13:42.936Z,100328.56
2023-05-14T00:18:46.964Z,100264.41
2023-05-14T00:23:50.768Z,100324.22
2023-05-14T00:28:54.811Z,100316.31
2023-05-14T00:33:58.991Z,100313.66
2023-05-14T00:39:03.104Z,100304.81
2023-05-14T00:44:07.251Z,100297.78
2023-05-14T00:49:11.517Z,100287.28
2023-05-14T00:54:18.079Z,100293.75
2023-05-14T00:59:21.879Z,100299.16
2023-05-14T01:04:26.218Z,100270.88
2023-05-14T01:09:36.445Z,100286.25
2023-05-14T01:14:58.035Z,100280.19
2023-05-14T01:20:03.119Z,100275.69
2023-05-14T01:25:08.092Z,100263.50
2023-05-14T01:30:24.855Z,100278.69
2023-05-14T01:35:31.048Z,100221.56
2023-05-14T01:40:37.741Z,100258.19
2023-05-14T01:45:42.442Z,100255.25
2023-05-14T01:50:47.044Z,100260.06
2023-05-14T01:55:51.127Z,100239.94
2023-05-14T02:00:55.301Z,100219.44
2023-05-14T02:05:59.145Z,100230.97
2023-05-14T02:11:04.419Z,100172.59
2023-05-14T02:16:08.546Z,100206.31
2023-05-14T02:21:12.758Z,100202.66
2023-05-14T02:26:16.847Z,100198.13
2023-05-14T02:31:20.676Z,100204.81
2023-05-14T02:36:24.860Z,100162.91
2023-05-14T02:41:28.750Z,100185.09
2023-05-14T02:46:33.621Z,100167.75
2023-05-14T02:51:38.706Z,100152.44
2023-05-14T02:56:43.000Z,100151.25
2023-05-14T03:01:47.123Z,100141.84
2023-05-14T03:06:51.846Z,100154.69
2023-05-14T03:11:56.127Z,100134.03
2023-05-14T03:17:00.057Z,100129.69
2023-05-14T03:22:04.392Z,100125.72
2023-05-14T03:27:10.429Z,100119.88
2023-05-14T03:32:14.570Z,100115.22
2023-05-14T03:37:18.495Z,100095.38
2023-05-14T03:42:23.413Z,100088.53
2023-05-14T03:47:27.408Z,100110.91
2023-05-14T03:52:31.669Z,100105.03
2023-05-14T03:57:39.673Z,100100.84
2023-05-14T04:02:43.881Z,100105.00
2023-05-14T04:07:48.234Z,100105.66
2023-05-14T04:12:52.148Z,100070.97
2023-05-14T04:17:56.531Z,100082.06
2023-05-14T04:23:00.689Z,100078.09
2023-05-14T04:28:04.855Z,100051.78
2023-05-14T04:33:08.619Z,100059.41
2023-05-14T04:38:14.741Z,100058.94
2023-05-14T04:43:18.666Z,100046.38
2023-05-14T04:48:23.265Z,100030.25
2023-05-14T04:53:27.533Z,100015.38
2023-05-14T04:58:34.997Z,100001.63
2023-05-14T05:03:39.341Z,99992.09
2023-05-14T05:08:43.255Z,99987.41
2023-05-14T05:13:47.266Z,99990.19
2023-05-14T05:18:51.027Z,99917.38
2023-05-14T05:23:55.067Z,99970.31
2023-05-14T05:28:58.803Z,99961.69
2023-05-14T05:34:03.736Z,99954.69
2023-05-14T05:39:07.958Z,99929.13
2023-05-14T05:44:11.813Z,99935.28
2023-05-14T05:49:15.809Z,99912.41
2023-05-14T05:54:20.086Z,99903.81
2023-05-14T05:59:24.318Z,99888.97
2023-05-14T06:04:28.471Z,99882.09
2023-05-14T06:09:32.199Z,99857.00
2023-05-14T06:14:36.177Z,99856.69
2023-05-14T06:19:40.224Z,99856.47
2023-05-14T06:24:44.222Z,99782.69
2023-05-14T06:29:48.251Z,99844.88
2023-05-14T06:34:52.190Z,99836.28
2023-05-14T06:39:57.740Z,99829.25
2023-05-14T06:45:02.141Z,99814.53
2023-05-14T06:50:10.165Z,99806.69
2023-05-14T06:55:14.947Z,99799.06
2023-05-14T07:00:19.765Z,99781.06
2023-05-14T07:05:23.856Z,99776.16
2023-05-14T07:10:28.104Z,99764.16
2023-05-14T07:15:32.181Z,99748.97
2023-05-14T07:20:36.297Z,99734.50
2023-05-14T07:25:40.173Z,99748.72
2023-05-14T07:30:44.181Z,99729.28
2023-05-14T07:35:48.367Z,99729.44
2023-05-14T07:40:52.100Z,99725.47
2023-05-14T07:45:57.262Z,99714.94
2023-05-14T07:51:01.420Z,99705.88
2023-05-14T07:56:05.878Z,99706.69
2023-05-14T08:01:09.747Z,99705.88
2023-05-14T08:06:13.754Z,99680.63
2023-05-14T08:11:17.707Z,99675.94
2023-05-14T08:16:21.735Z,99659.97
2023-05-14T08:21:25.748Z,99654.09
2023-05-14T08:26:29.611Z,99660.88
2023-05-14T08:31:33.749Z,99653.66
2023-05-14T08:36:37.969Z,99650.84
2023-05-14T08:41:42.168Z,99633.06
2023-05-14T08:46:46.966Z,99636.72
2023-05-14T08:51:51.362Z,99638.34
2023-05-14T08:56:55.850Z,99620.44
2023-05-14T09:02:06.246Z,99616.94
2023-05-14T09:07:12.039Z,99597.00
2023-05-14T09:12:16.087Z,99616.94
2023-05-14T09:17:20.504Z,99597.03
2023-05-14T09:22:24.598Z,99592.72
2023-05-14T09:27:32.608Z,99603.06
2023-05-14T09:32:40.370Z,99590.38
2023-05-14T09:37:50.015Z,99586.28
2023-05-14T09:42:53.978Z,99584.94
2023-05-14T09:48:01.989Z,99575.84
2023-05-14T09:53:06.387Z,99574.56
2023-05-14T09:58:10.735Z,99566.53
2023-05-14T10:03:18.844Z,99572.78
2023-05-14T10:08:28.785Z,99559.78
2023-05-14T10:13:39.001Z,99559.78
2023-05-14T10:18:49.530Z,99559.16
2023-05-14T10:23:53.772Z,99574.72
2023-05-14T10:28:58.765Z,99572.63
2023-05-14T10:34:02.626Z,99545.28
2023-05-14T10:39:09.879Z,99553.88
2023-05-14T10:44:15.207Z,99546.66
2023-05-14T10:49:28.920Z,99542.22
2023-05-14T10:54:40.656Z,99530.53
2023-05-14T10:59:44.577Z,99527.09
2023-05-14T11:05:04.160Z,99519.19
2023-05-14T11:10:14.718Z,99521.34
2023-05-14T11:15:29.065Z,99507.84
2023-05-14T11:20:33.423Z,99497.84
2023-05-14T11:25:37.580Z,99504.91
2023-05-14T11:30:41.533Z,99498.47
2023-05-14T11:35:47.219Z,99493.38
2023-05-14T11:40:58.703Z,99462.44
2023-05-14T11:46:02.629Z,99498.97
2023-05-14T11:51:06.780Z,99495.19
2023-05-14T11:56:11.743Z,99499.28
2023-05-14T12:01:16.757Z,99490.72
2023-05-14T12:06:20.741Z,99490.91
2023-05-14T12:11:24.915Z,99493.38
2023-05-14T12:16:34.463Z,99491.56
2023-05-14T12:21:41.227Z,99499.63
2023-05-14T12:26:49.877Z,99492.22
2023-05-14T12:31:53.738Z,99499.47
2023-05-14T12:36:57.985Z,99505.22
2023-05-14T12:42:02.307Z,99506.03
2023-05-14T12:47:06.684Z,99501.94
2023-05-14T12:57:18.566Z,99502.75
2023-05-14T13:02:22.580Z,99509.50
2023-05-14T13:07:26.636Z,99497.31
2023-05-14T13:12:30.691Z,99503.84
2023-05-14T13:17:34.865Z,99497.28
2023-05-14T13:22:38.961Z,99428.34
2023-05-14T13:27:42.879Z,99494.63
2023-05-14T13:32:47.466Z,99487.03
2023-05-14T13:37:51.508Z,99499.16
2023-05-14T13:42:55.542Z,99477.91
2023-05-14T13:47:59.607Z,99493.03
2023-05-14T13:53:03.755Z,99492.66
2023-05-14T13:58:09.787Z,99500.81
2023-05-14T14:03:13.765Z,99501.75
2023-05-14T14:08:24.121Z,99504.13
2023-05-14T14:13:30.456Z,99498.97
2023-05-14T14:18:35.304Z,99497.16
2023-05-14T14:23:39.365Z,99505.56
2023-05-14T14:28:43.593Z,99508.91
2023-05-14T14:33:48.101Z,99513.94
2023-05-14T14:38:52.066Z,99525.25
2023-05-14T14:43:56.290Z,99518.75
2023-05-14T14:49:00.362Z,99465.88
2023-05-14T14:54:05.888Z,99476.41
2023-05-14T14:59:10.067Z,99454.97
2023-05-14T15:04:14.152Z,99517.44
2023-05-14T15:09:18.186Z,99527.06
2023-05-14T15:14:23.194Z,99466.91
2023-05-14T15:19:27.267Z,99525.91
2023-05-14T15:24:31.180Z,99521.59
2023-05-14T15:29:35.227Z,99528.16
2023-05-14T15:34:39.438Z,99508.63
2023-05-14T15:39:43.328Z,99525.41
2023-05-14T15:44:47.445Z,99546.38
2023-05-14T15:49:51.379Z,99560.59
2023-05-14T15:54:58.055Z,99559.16
2023-05-14T16:00:02.523Z,99567.25
2023-05-14T16:05:10.395Z,99555.88
2023-05-14T16:10:14.397Z,99558.06
2023-05-14T16:15:18.551Z,99558.81
2023-05-14T16:20:23.201Z,99555.84
2023-05-14T16:25:27.494Z,99558.50
2023-05-14T16:30:31.532Z,99559.50
2023-05-14T16:35:35.745Z,99558.91
2023-05-14T16:40:39.853Z,99517.16
2023-05-14T16:45:43.902Z,99569.41
2023-05-14T16:50:48.136Z,99567.97
2023-05-14T16:55:52.414Z,99576.94
2023-05-14T17:00:56.698Z,99574.28
2023-05-14T17:06:00.997Z,99584.34
2023-05-14T17:11:06.665Z,99573.13
2023-05-14T17:16:10.645Z,99582.38
2023-05-14T17:21:14.889Z,99563.09
2023-05-14T17:26:19.192Z,99522.13
2023-05-14T17:31:23.823Z,99578.09
2023-05-14T17:36:29.179Z,99582.03
2023-05-14T17:41:33.101Z,99573.94
2023-05-14T17:46:37.501Z,99580.47
2023-05-14T17:51:41.424Z,99559.13
2023-05-14T17:56:45.693Z,99595.00
2023-05-14T18:01:50.084Z,99581.69
2023-05-14T18:06:53.939Z,99587.78
2023-05-14T18:11:57.956Z,99515.38
2023-05-14T18:17:02.023Z,99566.78
2023-05-14T18:22:06.276Z,99592.91
2023-05-14T18:27:10.287Z,99589.97
2023-05-14T18:32:14.220Z,99592.84
2023-05-14T18:37:18.088Z,99594.88
2023-05-14T18:42:21.961Z,99594.56
2023-05-14T18:47:26.213Z,99570.72
2023-05-14T18:52:30.402Z,99572.13
2023-05-14T18:57:34.716Z,99597.31
2023-05-14T19:02:39.132Z,99600.47
2023-05-14T19:07:44.625Z,99604.22
2023-05-14T19:12:48.694Z,99599.97
2023-05-14T19:17:53.949Z,99615.47
2023-05-14T19:22:57.983Z,99621.28
2023-05-14T19:28:04.345Z,99621.75
2023-05-14T19:33:08.384Z,99622.75
2023-05-14T19:38:12.305Z,99625.72
2023-05-14T19:43:16.371Z,99632.16
2023-05-14T19:48:20.245Z,99617.69
2023-05-14T19:53:30.338Z,99610.91
2023-05-14T19:58:34.494Z,99628.91
2023-05-14T20:03:39.279Z,99647.94
2023-05-14T20:08:43.390Z,99646.44
2023-05-14T20:13:47.520Z,99639.19
2023-05-14T20:18:53.756Z,99646.28
2023-05-14T20:23:57.886Z,99648.53
2023-05-14T20:29:01.819Z,99646.22
2023-05-14T20:34:05.807Z,99650.09
2023-05-14T20:39:11.899Z,99653.75
2023-05-14T20:44:16.376Z,99650.25
2023-05-14T20:49:21.116Z,99653.84
2023-05-14T20:54:25.014Z,99661.84
2023-05-14T20:59:29.104Z,99660.50
2023-05-14T21:04:35.334Z,99671.66
2023-05-14T21:09:39.418Z,99669.78
2023-05-14T21:14:43.348Z,99672.50
2023-05-14T21:19:47.493Z,99683.16
2023-05-14T21:24:51.907Z,99688.63
2023-05-14T21:29:56.010Z,99695.59
2023-05-14T21:35:00.108Z,99686.22
2023-05-14T21:40:04.049Z,99694.97
2023-05-14T21:45:10.189Z,99675.56
2023-05-14T21:50:14.355Z,99689.13
2023-05-14T21:55:18.441Z,99664.19
2023-05-14T22:00:25.977Z,99686.72
2023-05-14T22:06:30.621Z,99694.97
2023-05-14T22:11:34.559Z,99715.25
2023-05-14T22:16:38.772Z,99712.44
2023-05-14T22:21:42.711Z,99709.56
2023-05-14T22:26:46.786Z,99713.72
2023-05-14T22:31:50.675Z,99721.91
2023-05-14T22:36:55.356Z,99728.94
2023-05-14T22:41:59.472Z,99667.38
2023-05-14T22:47:05.979Z,99752.34
2023-05-14T22:52:10.855Z,99740.94
2023-05-14T22:57:14.778Z,99755.69
2023-05-14T23:02:19.054Z,99781.13
2023-05-14T23:07:23.315Z,99768.50
2023-05-14T23:12:27.404Z,99777.31
2023-05-14T23:17:31.537Z,99779.34
2023-05-14T23:22:35.581Z,99776.53
2023-05-14T23:27:39.609Z,99775.56
2023-05-14T23:32:43.543Z,99784.47
2023-05-14T23:37:50.052Z,99788.13
2023-05-14T23:42:54.069Z,99744.44
2023-05-14T23:47:59.895Z,99798.53
2023-05-14T23:53:04.485Z,99803.97
2023-05-14T23:58:08.562Z,99806.72
